< < Back
Terminal Aerodrome Forecast


Current Version              Previous Versions:   1  2  3  4  5  6  7  8  9  

Terminal Aerodrome Forecast

819
FTUS44 KMRX 251507 AAC
TAFTYS
TAF AMD
KTYS 251507Z 2515/2612 VRB05KT P6SM SCT040 SCT250
      TEMPO 2515/2516 BKN015
     FM260000 00000KT P6SM SCT250=



Latest METAR

046
SAUS80 KWBC 252000 RRB
MTRTYS
METAR KTYS 251953Z 26007KT 10SM FEW037 FEW250 28/17 A3003 RMK AO2 SLP157
T02780172


USA.gov is the U.S. government's official web portal to all federal, state and local government web resources and services.